Aérodrome :
LOGIN :

S'inscrire | Disclaimer

   EN    FR    IT 

 










Légende :    VFR   VFR Marginal   IFR   IFR Intensif   IFR Très Intensif
Visi : 
Plafond : 
>= 8 km
>= 3000ft
5 à 8 km
1000 à 3000 ft
1500m à 5 km
500 à 1000 ft
800 à 1500m
200 à 500 ft
< 800m
< 200 ft
Symboles :   Orages  Brouillard  Fortes neiges  Fortes précipitations  Vent > 20 kt
SIGMETs :   Divers  Orages  Givrage  Turbulence  Onde Orograph.  Cendres Volcan.







- Altitude de l'aérodrome : 659 ft
- Code IATA : LYN
- Voir les cartes d'approche


LFLY - Lyon Bron

DERNIER METAR :
  • 231200Z AUTO 10009KT 9999 ///TCU 17/07 Q1007 TEMPO VRB20G40KT 2000 TSRAGS FEW010 BKN020CB

METARs EXPIRÉS :
  • 231130Z AUTO 09008KT 060V140 9999 SCT046/// SCT080/// BKN100/// ///TCU 17/08 Q1008 TEMPO VRB20G40KT 2000 TSRAGS FEW010 BKN020CB
  • 231100Z AUTO 08009KT 050V110 CAVOK 16/07 Q1008 TEMPO VRB20G35KT 2000 TSGS FEW010 BKN025CB
  • 231030Z AUTO 10009KT 070V140 9999 ///TCU 16/07 Q1008 TEMPO VRB20G35KT 2000 TSGS FEW010 BKN025CB
  • 231000Z AUTO 10010KT 9999 ///TCU 14/06 Q1008 BECMG BKN050
  • 230930Z AUTO 09008KT 060V120 CAVOK 14/07 Q1008 NOSIG

TAF TAF LFLY
Valide du 23 à 12h jusqu'au 24 à 12h UTC


231100Z 2312/2412 11005KT 9999 SCT040TCU BKN055
BECMG 2314/2316 36008KT BKN020
TEMPO 2312/2322 4000 SHRA BKN020TCU FEW040CB
PROB40
TEMPO 2312/2320 VRB20G40KT 2000 TSRAGS FEW010 BKN020CB
TEMPO 2322/2401 4000 RA SCT005 BKN020
TEMPO 2406/2412 -RA
PROB40
TEMPO 2403/2410 BKN005
ATIS : +33 4 72 15 87 96
Pas de NOTAMs connus pour ce terrain.
3 SIGMETs publiés pour la FIR Marseille (LFMM) :
 
Orages noyés dans la masse
LFMM SIGMET 9 VALID 231140/231300 LFPW
LFMM MARSEILLE FIR/UIR EMBD TS OBS AT 1140Z WI N4300 E00515 - N4330 E00515 - N4330 E00645 - N4245 E00645 TOP FL280 STNR NC=
Turbulence forte
LFMM SIGMET 7 VALID 231000/231300 LFPW
LFMM MARSEILLE FIR/UIR SEV TURB FCST WI N4345 E00245 - N4515 E00245 - N4600 E00345 - N4515 E00545 - N4345 E00530 SFC/FL060 STNR NC=
Orages noyés dans la masse
LFMM SIGMET 10 VALID 231200/231400 LFPW
LFMM MARSEILLE FIR/UIR EMBD TS OBS WI N4330 E00245 - N4600 E00300 - N4615 E00430 - N4415 E00445 - N4230 E00315 TOP FL320 STNR NC=



MET'MAP, la Météo Aéronautique d'un coup d'oeil ! - Copyright ORBIFLY Décembre 2007 - Disclaimer

ORBIFLY MET'MAP TEAM :

Programmation & Développement : Alexandra Zaïnal
Conception & Développement : Baudouin d'Aumeries
Co-Programmation & Développement : Marc-Olivier Méhu
Soutien technique & logistique : Manuel Goepfert

Contact : metmap@orbifly.com




SOURCES & CREDITS :

   NOAA